Time;durP1;ratioP1;P1;durP2;ratioP2;P2;SDS_P1;SDS_P2;PMS_P1;PMS_P2;Temp;Humidity;BMP_temperature;BMP_pressure;BME280_temperature;BME280_humidity;BME280_pressure;Samples;Min_cycle;Max_cycle;Signal;HPM_P1;HPM_P2
2023/05/25 00:02:06;;;;;;;12.90;8.47;;;11.80;99.90;;;;;;4974741;28;20441;-79
2023/05/25 00:04:35;;;;;;;14.13;8.00;;;11.80;99.90;;;;;;4973488;28;20536;-79
2023/05/25 00:07:04;;;;;;;11.97;8.83;;;11.90;99.90;;;;;;4974581;28;20880;-79
2023/05/25 00:09:32;;;;;;;11.37;8.40;;;11.90;99.90;;;;;;4973425;28;20947;-79
2023/05/25 00:12:01;;;;;;;15.97;9.47;;;11.90;99.90;;;;;;4974851;28;20854;-79
2023/05/25 00:14:30;;;;;;;12.27;8.00;;;11.90;99.90;;;;;;4973285;28;20454;-78
2023/05/25 00:17:02;;;;;;;14.57;9.73;;;11.80;99.90;;;;;;4974464;28;20461;-79
2023/05/25 00:19:32;;;;;;;13.87;9.07;;;11.90;99.90;;;;;;4973292;28;20434;-79
2023/05/25 00:22:02;;;;;;;15.53;8.90;;;11.90;99.90;;;;;;4974642;28;20517;-78
2023/05/25 00:24:30;;;;;;;15.03;9.00;;;11.90;99.90;;;;;;4973175;28;20457;-79
2023/05/25 00:26:59;;;;;;;16.07;9.60;;;11.80;99.90;;;;;;4973009;28;20505;-78
2023/05/25 00:29:27;;;;;;;11.50;8.07;;;11.80;99.90;;;;;;4973293;28;20450;-79
2023/05/25 00:31:56;;;;;;;13.20;9.03;;;11.80;99.90;;;;;;4976733;28;20947;-78
2023/05/25 00:34:25;;;;;;;14.63;9.70;;;11.90;99.90;;;;;;4975933;28;20450;-78
2023/05/25 00:36:54;;;;;;;14.77;8.60;;;12.00;99.90;;;;;;4977087;28;20214;-78
2023/05/25 00:39:22;;;;;;;15.07;9.87;;;12.00;99.90;;;;;;4978237;28;20469;-78
2023/05/25 00:41:50;;;;;;;18.63;9.20;;;12.00;99.90;;;;;;4977016;28;20512;-78
2023/05/25 00:44:20;;;;;;;18.93;9.70;;;11.90;99.90;;;;;;4976936;28;20856;-78
2023/05/25 00:46:51;;;;;;;13.97;8.90;;;11.90;99.90;;;;;;4976821;28;20470;-78
2023/05/25 00:49:22;;;;;;;15.83;9.50;;;11.90;99.90;;;;;;4978286;28;20433;-78
2023/05/25 00:51:53;;;;;;;15.47;8.90;;;11.90;99.90;;;;;;4976976;28;20477;-79
2023/05/25 00:54:21;;;;;;;13.10;10.10;;;11.90;99.90;;;;;;4976951;28;20959;-79
2023/05/25 00:56:52;;;;;;;11.63;8.87;;;11.90;99.90;;;;;;4976729;28;20497;-78
2023/05/25 00:59:28;;;;;;;15.10;9.70;;;11.80;99.90;;;;;;4976771;28;20445;-79
2023/05/25 01:01:59;;;;;;;13.03;9.13;;;11.90;99.90;;;;;;4976679;28;20445;-79
2023/05/25 01:04:28;;;;;;;13.97;8.90;;;11.80;99.90;;;;;;4976797;28;20449;-79
2023/05/25 01:07:00;;;;;;;12.10;8.53;;;11.80;99.90;;;;;;4976515;28;20484;-78
2023/05/25 01:09:29;;;;;;;15.33;10.67;;;11.80;99.90;;;;;;4976554;28;20445;-79
2023/05/25 01:11:59;;;;;;;16.00;9.70;;;11.80;99.90;;;;;;4976499;28;20453;-79
2023/05/25 01:14:28;;;;;;;14.20;9.80;;;11.80;99.90;;;;;;4976356;28;20489;-79
2023/05/25 01:16:58;;;;;;;19.13;9.80;;;11.80;99.90;;;;;;4976380;28;20528;-79
2023/05/25 01:19:27;;;;;;;13.53;8.27;;;11.80;99.90;;;;;;4978222;28;20437;-79
2023/05/25 01:22:03;;;;;;;12.83;8.90;;;11.80;99.90;;;;;;4976220;28;20445;-79
2023/05/25 01:24:39;;;;;;;13.60;9.37;;;11.80;99.90;;;;;;4976264;28;20442;-79
2023/05/25 01:27:15;;;;;;;14.63;9.93;;;11.80;99.90;;;;;;4976132;28;20561;-79
2023/05/25 01:29:47;;;;;;;16.30;11.23;;;11.80;99.90;;;;;;4976520;28;20508;-78
2023/05/25 01:32:18;;;;;;;18.67;12.47;;;11.70;99.90;;;;;;4977701;28;20425;-76
2023/05/25 01:34:50;;;;;;;18.50;12.07;;;11.70;99.90;;;;;;4975827;28;20452;-76
2023/05/25 01:37:23;;;;;;;20.23;12.60;;;11.70;99.90;;;;;;4976242;28;20441;-77
2023/05/25 01:39:51;;;;;;;19.53;13.13;;;11.70;99.90;;;;;;4976321;28;20464;-77
2023/05/25 01:42:19;;;;;;;14.00;11.67;;;11.70;99.90;;;;;;4974552;28;20477;-77
2023/05/25 01:44:48;;;;;;;18.87;12.10;;;11.70;99.90;;;;;;4975771;28;20457;-76
2023/05/25 01:47:23;;;;;;;14.97;11.60;;;11.60;99.90;;;;;;4982631;23;20485;-76
2023/05/25 01:50:00;;;;;;;18.57;13.07;;;11.60;99.90;;;;;;4977274;28;20449;-77
2023/05/25 01:52:34;;;;;;;17.00;12.60;;;11.60;99.90;;;;;;4975640;28;20524;-77
2023/05/25 01:55:08;;;;;;;18.47;12.90;;;11.50;99.90;;;;;;4975725;28;20445;-77
2023/05/25 01:57:42;;;;;;;20.27;13.90;;;11.60;99.90;;;;;;4975755;28;20464;-77
2023/05/25 02:00:13;;;;;;;16.53;12.33;;;11.50;99.90;;;;;;4975635;28;20446;-77
2023/05/25 02:02:43;;;;;;;21.63;13.57;;;11.50;99.90;;;;;;4977467;28;20888;-77
2023/05/25 02:05:11;;;;;;;17.43;12.00;;;11.50;99.90;;;;;;4975372;28;20473;-77
2023/05/25 02:07:41;;;;;;;20.20;12.70;;;11.50;99.90;;;;;;4975412;28;20504;-77
2023/05/25 02:10:10;;;;;;;21.53;13.83;;;11.50;99.90;;;;;;4975355;28;21021;-77
2023/05/25 02:12:38;;;;;;;18.40;13.07;;;11.40;99.90;;;;;;4975392;28;20458;-77
2023/05/25 02:15:07;;;;;;;14.93;13.07;;;11.40;99.90;;;;;;4975281;28;20523;-77
2023/05/25 02:17:36;;;;;;;19.90;11.70;;;11.40;99.90;;;;;;4975294;28;20450;-77
2023/05/25 02:20:07;;;;;;;19.80;13.00;;;11.40;99.90;;;;;;4975392;28;20869;-77
2023/05/25 02:22:36;;;;;;;20.17;12.70;;;11.40;99.90;;;;;;4975448;28;20442;-77
2023/05/25 02:25:09;;;;;;;20.30;13.20;;;11.40;99.90;;;;;;4975163;28;21032;-77
2023/05/25 02:27:37;;;;;;;19.90;13.43;;;11.40;99.90;;;;;;4975136;28;20536;-77
2023/05/25 02:30:08;;;;;;;20.33;13.10;;;11.40;99.90;;;;;;4975084;28;20454;-77
2023/05/25 02:32:36;;;;;;;17.90;13.10;;;11.30;99.90;;;;;;4975093;28;20462;-77
2023/05/25 02:35:05;;;;;;;19.80;13.80;;;11.30;99.90;;;;;;4974963;28;20481;-77
2023/05/25 02:37:34;;;;;;;18.93;13.10;;;11.30;99.90;;;;;;4974967;28;20481;-77
2023/05/25 02:40:05;;;;;;;19.47;13.00;;;11.30;99.90;;;;;;4974986;28;20468;-78
2023/05/25 02:42:34;;;;;;;17.47;13.67;;;11.30;99.90;;;;;;4974920;28;20442;-77
2023/05/25 02:45:05;;;;;;;16.93;14.23;;;11.20;99.90;;;;;;4976048;28;20441;-77
2023/05/25 02:47:34;;;;;;;20.07;14.10;;;11.20;99.90;;;;;;4974630;28;20864;-77
2023/05/25 02:50:04;;;;;;;21.90;14.47;;;11.20;99.90;;;;;;4974335;28;20445;-77
2023/05/25 02:52:36;;;;;;;17.13;13.10;;;11.20;99.90;;;;;;4974491;28;20457;-77
2023/05/25 02:55:06;;;;;;;19.50;14.87;;;11.20;99.90;;;;;;4974566;28;20505;-77
2023/05/25 02:57:38;;;;;;;18.17;14.47;;;11.20;99.90;;;;;;4974941;28;20450;-77
2023/05/25 03:00:10;;;;;;;20.57;15.47;;;11.20;99.90;;;;;;4974549;28;20460;-77
2023/05/25 03:02:39;;;;;;;19.57;14.00;;;11.20;99.90;;;;;;4974609;28;20951;-77
2023/05/25 03:05:08;;;;;;;16.77;13.67;;;11.20;99.90;;;;;;4974870;28;20893;-77
2023/05/25 03:07:37;;;;;;;19.93;15.50;;;11.20;99.90;;;;;;4974468;28;20991;-77
2023/05/25 03:10:06;;;;;;;20.23;14.07;;;11.20;99.90;;;;;;4974312;28;20446;-77
2023/05/25 03:12:34;;;;;;;16.70;13.73;;;11.10;99.90;;;;;;4974340;28;20504;-77
2023/05/25 03:15:05;;;;;;;20.63;15.00;;;11.10;99.90;;;;;;4974233;28;20474;-77
2023/05/25 03:17:34;;;;;;;22.23;15.07;;;11.10;99.90;;;;;;4975106;28;20434;-76
2023/05/25 03:20:03;;;;;;;18.93;15.40;;;11.10;99.90;;;;;;4973978;28;20464;-76
2023/05/25 03:22:32;;;;;;;18.97;15.70;;;11.10;99.90;;;;;;4974443;28;20476;-77
2023/05/25 03:25:01;;;;;;;22.30;16.87;;;11.00;99.90;;;;;;4973955;28;20549;-77
2023/05/25 03:27:30;;;;;;;23.23;16.97;;;11.00;99.90;;;;;;4974251;28;20480;-77
2023/05/25 03:29:58;;;;;;;18.97;16.07;;;11.00;99.90;;;;;;4974275;28;20819;-77
2023/05/25 03:32:28;;;;;;;20.97;16.97;;;10.90;99.90;;;;;;4974058;28;20449;-77
2023/05/25 03:34:57;;;;;;;21.80;16.60;;;11.00;99.90;;;;;;4974703;28;20484;-77
2023/05/25 03:37:26;;;;;;;21.03;17.20;;;10.90;99.90;;;;;;4974366;28;20454;-77
2023/05/25 03:39:54;;;;;;;21.53;17.30;;;10.90;99.90;;;;;;4983112;28;20450;-77
2023/05/25 03:42:23;;;;;;;23.98;17.63;;;10.90;99.90;;;;;;4987107;28;20999;-76
2023/05/25 03:44:51;;;;;;;22.80;17.00;;;11.00;99.90;;;;;;4986639;28;20209;-75
2023/05/25 03:47:19;;;;;;;22.87;17.30;;;11.00;99.90;;;;;;4989261;28;20465;-77
2023/05/25 03:49:49;;;;;;;22.00;17.30;;;11.00;99.90;;;;;;4988319;28;20461;-76
2023/05/25 03:52:17;;;;;;;21.93;16.03;;;11.00;99.90;;;;;;4986010;28;20449;-76
2023/05/25 03:54:45;;;;;;;21.40;15.43;;;11.00;99.90;;;;;;4987609;28;20457;-76
2023/05/25 03:57:14;;;;;;;23.87;17.57;;;10.90;99.90;;;;;;4986552;28;20454;-76
2023/05/25 03:59:42;;;;;;;20.97;16.00;;;10.90;99.90;;;;;;4987919;28;20445;-76
2023/05/25 04:02:10;;;;;;;17.33;14.63;;;10.90;99.90;;;;;;4987990;28;20449;-76
2023/05/25 04:04:42;;;;;;;19.60;16.63;;;10.90;99.90;;;;;;4985449;28;20453;-76
2023/05/25 04:07:12;;;;;;;24.97;17.30;;;10.90;99.90;;;;;;4983196;28;20484;-76
2023/05/25 04:09:40;;;;;;;17.70;15.80;;;11.00;99.90;;;;;;4983262;28;20535;-76
2023/05/25 04:12:09;;;;;;;20.83;17.03;;;11.00;99.90;;;;;;4986337;28;20501;-76
2023/05/25 04:14:37;;;;;;;19.50;16.07;;;11.00;99.90;;;;;;4981912;28;20485;-76
2023/05/25 04:17:06;;;;;;;22.90;16.67;;;11.00;99.90;;;;;;4982161;28;20546;-77
2023/05/25 04:19:34;;;;;;;22.87;17.60;;;11.00;99.90;;;;;;4983318;28;20453;-77
2023/05/25 04:22:03;;;;;;;26.30;17.60;;;11.00;99.90;;;;;;4973899;28;20453;-77
2023/05/25 04:24:33;;;;;;;21.27;17.03;;;11.00;99.90;;;;;;4973431;28;20457;-77
2023/05/25 04:27:02;;;;;;;20.67;16.20;;;11.00;99.90;;;;;;4973258;28;20474;-78
2023/05/25 04:29:30;;;;;;;25.87;17.30;;;11.00;99.90;;;;;;4973366;28;20473;-77
2023/05/25 04:32:09;;;;;;;21.10;17.80;;;11.00;99.90;;;;;;4973871;28;20437;-77
2023/05/25 04:35:08;;;;;;;24.43;17.83;;;11.00;99.90;;;;;;4961457;28;20466;-77
2023/05/25 04:37:43;;;;;;;25.60;17.90;;;11.00;99.90;;;;;;4973338;28;20449;-77
2023/05/25 04:40:13;;;;;;;21.93;15.90;;;11.00;99.90;;;;;;4973096;28;20959;-77
2023/05/25 04:42:43;;;;;;;20.23;16.70;;;11.00;99.90;;;;;;4973170;28;20434;-77
2023/05/25 04:45:16;;;;;;;23.10;17.30;;;11.10;99.90;;;;;;4972998;28;20930;-77
2023/05/25 04:47:46;;;;;;;19.97;16.17;;;11.10;99.90;;;;;;4973088;28;20491;-77
2023/05/25 04:50:14;;;;;;;19.17;16.23;;;11.20;99.90;;;;;;4972971;28;20906;-77
2023/05/25 04:52:42;;;;;;;20.57;16.03;;;11.10;99.90;;;;;;4972998;28;20862;-77
2023/05/25 04:55:12;;;;;;;19.83;17.67;;;11.10;99.90;;;;;;4972976;28;20497;-77
2023/05/25 04:57:42;;;;;;;21.87;18.77;;;11.10;99.90;;;;;;4973082;28;20528;-77
2023/05/25 05:00:14;;;;;;;21.37;17.00;;;11.20;99.90;;;;;;4973026;28;20825;-77
2023/05/25 05:02:43;;;;;;;24.57;19.37;;;11.20;99.90;;;;;;4973308;28;20460;-77
2023/05/25 05:05:11;;;;;;;21.53;17.90;;;11.20;99.90;;;;;;4972981;28;20466;-76
2023/05/25 05:07:40;;;;;;;22.53;18.80;;;11.20;99.90;;;;;;4973154;28;20797;-76
2023/05/25 05:10:09;;;;;;;20.57;18.37;;;11.20;99.90;;;;;;4972716;28;20986;-76
2023/05/25 05:12:41;;;;;;;19.60;17.50;;;11.20;99.90;;;;;;4973192;28;20989;-76
2023/05/25 05:15:10;;;;;;;19.00;16.90;;;11.20;99.90;;;;;;4972814;28;20556;-77
2023/05/25 05:17:40;;;;;;;23.90;17.53;;;11.20;99.90;;;;;;4976353;28;20454;-76
2023/05/25 05:20:11;;;;;;;23.07;17.70;;;11.20;99.90;;;;;;4976398;28;20446;-77
2023/05/25 05:22:39;;;;;;;21.33;16.17;;;11.30;99.90;;;;;;4976481;28;20442;-77
2023/05/25 05:25:08;;;;;;;26.93;17.53;;;11.30;99.90;;;;;;4976235;28;20481;-76
2023/05/25 05:27:37;;;;;;;22.57;18.13;;;11.30;99.90;;;;;;4976178;28;20827;-77
2023/05/25 05:30:14;;;;;;;23.30;16.60;;;11.40;99.90;;;;;;4976998;28;20470;-77
2023/05/25 05:32:43;;;;;;;22.07;18.10;;;11.40;99.90;;;;;;4976336;28;20450;-76
2023/05/25 05:35:14;;;;;;;21.50;17.50;;;11.40;99.90;;;;;;4976574;28;20469;-76
2023/05/25 05:37:47;;;;;;;20.17;16.07;;;11.40;99.90;;;;;;4976190;28;20441;-75
2023/05/25 05:40:15;;;;;;;19.20;15.60;;;11.40;99.90;;;;;;4975976;28;20450;-76
2023/05/25 05:42:44;;;;;;;22.97;15.03;;;11.50;99.90;;;;;;4975963;28;20452;-76
2023/05/25 05:45:13;;;;;;;21.60;14.60;;;11.50;99.90;;;;;;4975821;28;20465;-76
2023/05/25 05:47:42;;;;;;;17.20;12.50;;;11.50;99.90;;;;;;4976028;28;20458;-75
2023/05/25 05:50:11;;;;;;;15.97;12.50;;;11.50;99.90;;;;;;4975794;28;20473;-75
2023/05/25 05:52:42;;;;;;;15.70;13.07;;;11.50;99.90;;;;;;4977398;28;20781;-76
2023/05/25 05:55:11;;;;;;;16.10;12.10;;;11.60;99.90;;;;;;4975930;28;20489;-75
2023/05/25 05:57:41;;;;;;;13.57;12.17;;;11.60;99.90;;;;;;4975758;28;20975;-76
2023/05/25 06:00:10;;;;;;;20.80;12.20;;;11.60;99.90;;;;;;4975637;28;20452;-76
2023/05/25 06:02:46;;;;;;;16.33;11.70;;;11.70;99.90;;;;;;4977383;28;20449;-76
2023/05/25 06:05:20;;;;;;;17.70;11.90;;;11.70;99.90;;;;;;4975635;28;20473;-76
2023/05/25 06:07:48;;;;;;;19.00;12.40;;;11.80;99.90;;;;;;4975658;28;20826;-76
2023/05/25 06:10:19;;;;;;;18.13;11.13;;;11.90;99.90;;;;;;4975703;28;20473;-76
2023/05/25 06:12:47;;;;;;;15.10;11.50;;;11.90;99.90;;;;;;4975391;28;20449;-76
2023/05/25 06:15:16;;;;;;;16.40;11.77;;;12.00;99.90;;;;;;4975302;28;20466;-76
2023/05/25 06:17:47;;;;;;;13.23;11.73;;;12.00;99.90;;;;;;4976308;28;20434;-76
2023/05/25 06:20:16;;;;;;;18.33;13.20;;;12.10;99.90;;;;;;4976180;28;20442;-76
2023/05/25 06:22:46;;;;;;;14.90;11.63;;;12.10;99.90;;;;;;4975285;28;20453;-76
2023/05/25 06:25:15;;;;;;;17.80;11.50;;;12.10;99.90;;;;;;4976458;28;20470;-76
2023/05/25 06:27:44;;;;;;;13.30;10.80;;;12.20;99.90;;;;;;4974328;28;20824;-76
2023/05/25 06:30:13;;;;;;;12.40;10.97;;;12.30;99.90;;;;;;4975046;28;20480;-76
2023/05/25 06:32:42;;;;;;;18.27;10.97;;;12.30;99.90;;;;;;4975073;28;20973;-76
2023/05/25 06:35:18;;;;;;;14.20;10.83;;;12.50;99.90;;;;;;4974919;28;20474;-76
2023/05/25 06:37:49;;;;;;;16.50;9.73;;;12.50;99.90;;;;;;4974974;28;20449;-75
2023/05/25 06:40:19;;;;;;;15.43;8.80;;;12.60;99.90;;;;;;4974858;28;20950;-76
2023/05/25 06:42:47;;;;;;;14.63;9.40;;;12.70;99.90;;;;;;4974845;28;20485;-76
2023/05/25 06:45:41;;;;;;;12.27;8.43;;;12.70;99.90;;;;;;4975283;28;20897;-76
2023/05/25 06:48:10;;;;;;;10.93;7.77;;;12.80;99.90;;;;;;4975782;28;20802;-76
2023/05/25 06:50:41;;;;;;;15.30;7.90;;;12.80;99.90;;;;;;4974712;28;20477;-76
2023/05/25 06:53:10;;;;;;;12.70;7.63;;;12.80;99.90;;;;;;4974710;28;20442;-76
2023/05/25 06:55:38;;;;;;;12.37;7.13;;;12.90;99.90;;;;;;4974790;28;20480;-76
2023/05/25 06:58:06;;;;;;;12.77;6.43;;;12.80;99.90;;;;;;4974555;28;20981;-76
2023/05/25 07:00:34;;;;;;;13.47;8.20;;;12.90;99.90;;;;;;4976046;28;20469;-75
2023/05/25 07:03:02;;;;;;;15.40;7.87;;;12.90;99.90;;;;;;4976133;28;20452;-75
2023/05/25 07:05:30;;;;;;;13.27;7.57;;;12.90;99.90;;;;;;4976098;28;20473;-75
2023/05/25 07:08:00;;;;;;;16.03;8.10;;;12.90;99.90;;;;;;4974735;28;20488;-75
2023/05/25 07:10:28;;;;;;;14.50;7.67;;;12.90;99.90;;;;;;4976786;28;20497;-76
2023/05/25 07:12:56;;;;;;;14.47;8.30;;;12.90;99.90;;;;;;4975853;28;20449;-74
2023/05/25 07:15:24;;;;;;;15.70;7.90;;;12.90;99.90;;;;;;4974911;28;20474;-76
2023/05/25 07:17:55;;;;;;;12.00;7.87;;;13.00;99.90;;;;;;4975737;28;20469;-76
2023/05/25 07:20:24;;;;;;;11.27;7.43;;;13.00;99.90;;;;;;4974224;28;20954;-76
2023/05/25 07:22:53;;;;;;;12.23;8.40;;;13.00;99.90;;;;;;4974909;28;20446;-74
2023/05/25 07:25:22;;;;;;;17.63;8.43;;;13.10;99.90;;;;;;4975553;28;20492;-75
2023/05/25 07:27:53;;;;;;;16.50;8.17;;;13.10;99.90;;;;;;4974551;28;20532;-75
2023/05/25 07:30:22;;;;;;;13.90;7.50;;;13.20;99.90;;;;;;4974128;28;20505;-76
2023/05/25 07:32:50;;;;;;;14.20;7.63;;;13.20;99.90;;;;;;4974202;28;20446;-75
2023/05/25 07:35:18;;;;;;;12.47;8.73;;;13.30;99.90;;;;;;4974213;28;20560;-76
2023/05/25 07:37:48;;;;;;;12.60;8.10;;;13.30;99.90;;;;;;4974312;28;20460;-75
2023/05/25 07:40:17;;;;;;;13.60;7.20;;;13.40;99.90;;;;;;4974245;28;20478;-75
2023/05/25 07:42:46;;;;;;;11.93;7.17;;;13.50;99.90;;;;;;4975453;28;20437;-76
2023/05/25 07:45:15;;;;;;;17.77;8.07;;;13.60;99.90;;;;;;4975150;28;20540;-76
2023/05/25 07:47:43;;;;;;;15.97;7.83;;;13.60;99.90;;;;;;4976692;28;20488;-77
2023/05/25 07:50:11;;;;;;;13.67;6.73;;;13.60;99.90;;;;;;4975316;28;20465;-76
2023/05/25 07:52:40;;;;;;;15.73;7.37;;;13.60;99.90;;;;;;4974344;28;20851;-75
2023/05/25 07:55:09;;;;;;;14.93;7.10;;;13.60;99.90;;;;;;4975210;28;20473;-77
2023/05/25 07:57:37;;;;;;;17.43;7.87;;;13.60;99.90;;;;;;4974089;28;20456;-76
2023/05/25 08:00:09;;;;;;;17.50;8.00;;;13.60;99.90;;;;;;4974002;28;20492;-76
2023/05/25 08:02:40;;;;;;;18.30;8.70;;;13.60;99.90;;;;;;4975568;28;20426;-76
2023/05/25 08:05:11;;;;;;;14.23;7.87;;;13.60;99.90;;;;;;4973997;28;20474;-76
2023/05/25 08:07:40;;;;;;;16.47;8.63;;;13.60;99.90;;;;;;4974167;28;20445;-76
2023/05/25 08:10:10;;;;;;;15.50;7.73;;;13.70;99.90;;;;;;4975128;28;20807;-76
2023/05/25 08:12:40;;;;;;;13.90;7.83;;;13.80;99.90;;;;;;4973887;28;20541;-76
2023/05/25 08:15:18;;;;;;;15.07;7.77;;;13.90;99.90;;;;;;4974065;28;20477;-75
2023/05/25 08:17:49;;;;;;;15.90;7.50;;;14.00;99.90;;;;;;4975395;28;20854;-77
2023/05/25 08:20:18;;;;;;;15.73;7.90;;;14.00;99.90;;;;;;4973822;28;20450;-77
2023/05/25 08:22:46;;;;;;;19.63;8.13;;;14.00;99.90;;;;;;4973932;28;20445;-77
2023/05/25 08:25:14;;;;;;;21.57;9.50;;;14.10;99.90;;;;;;4973456;28;20477;-77
2023/05/25 08:27:42;;;;;;;19.50;10.60;;;14.10;99.90;;;;;;4973762;28;20465;-77
2023/05/25 08:30:11;;;;;;;18.57;8.97;;;14.20;99.90;;;;;;4973385;28;20481;-77
2023/05/25 08:32:41;;;;;;;17.60;7.30;;;14.20;99.90;;;;;;4975127;28;20441;-76
2023/05/25 08:35:09;;;;;;;15.20;7.77;;;14.30;99.90;;;;;;4973578;28;20474;-77
2023/05/25 08:37:38;;;;;;;19.30;7.60;;;14.30;99.90;;;;;;4975812;28;20939;-76
2023/05/25 08:40:12;;;;;;;17.27;8.10;;;14.30;99.90;;;;;;4975281;28;20529;-78
2023/05/25 08:42:42;;;;;;;13.67;6.30;;;14.40;99.90;;;;;;4973927;28;20819;-77
2023/05/25 08:45:10;;;;;;;18.80;7.43;;;14.50;99.90;;;;;;4974774;28;20453;-77
2023/05/25 08:48:03;;;;;;;21.00;7.77;;;14.60;99.90;;;;;;4974810;28;20436;-76
2023/05/25 08:50:33;;;;;;;14.80;7.00;;;14.60;99.90;;;;;;4973637;28;20465;-76
2023/05/25 08:53:04;;;;;;;19.50;7.30;;;14.70;99.90;;;;;;4978099;28;20500;-76
2023/05/25 08:55:37;;;;;;;20.43;7.27;;;14.70;99.90;;;;;;4977064;28;20538;-76
2023/05/25 08:58:10;;;;;;;15.23;6.83;;;14.70;99.90;;;;;;4978429;28;20425;-75
2023/05/25 09:00:48;;;;;;;16.90;6.73;;;14.70;99.90;;;;;;4977579;28;20488;-76
2023/05/25 09:03:18;;;;;;;21.43;7.40;;;14.70;99.90;;;;;;4978425;28;20797;-75
2023/05/25 09:05:47;;;;;;;16.70;6.83;;;14.70;99.90;;;;;;4977754;28;20548;-75
2023/05/25 09:08:16;;;;;;;17.17;7.83;;;14.70;99.90;;;;;;4977155;28;20468;-76
2023/05/25 09:10:45;;;;;;;14.80;6.20;;;14.60;99.90;;;;;;4977183;28;20901;-76
2023/05/25 09:13:13;;;;;;;17.80;6.30;;;14.70;99.90;;;;;;4978351;28;20848;-76
2023/05/25 09:15:50;;;;;;;15.37;5.67;;;14.80;99.90;;;;;;4977780;28;20465;-77
2023/05/25 09:18:22;;;;;;;16.67;6.33;;;14.90;99.90;;;;;;4977397;28;20453;-77
2023/05/25 09:20:51;;;;;;;21.20;7.10;;;14.90;99.90;;;;;;4977411;28;20449;-76
2023/05/25 09:23:20;;;;;;;18.13;5.57;;;15.00;99.90;;;;;;4976953;28;20532;-77
2023/05/25 09:25:49;;;;;;;15.03;6.10;;;15.00;99.90;;;;;;4978462;28;20465;-77
2023/05/25 09:28:19;;;;;;;15.50;6.07;;;15.00;99.90;;;;;;4977060;28;20453;-78
2023/05/25 09:30:54;;;;;;;14.10;5.43;;;15.10;99.90;;;;;;4976728;28;20495;-76
2023/05/25 09:33:24;;;;;;;17.40;6.70;;;15.10;99.90;;;;;;4976152;28;20854;-77
2023/05/25 09:35:52;;;;;;;15.37;6.20;;;15.20;99.90;;;;;;4976505;28;20497;-76
2023/05/25 09:38:21;;;;;;;18.23;7.17;;;15.20;99.90;;;;;;4977845;28;20442;-77
2023/05/25 09:40:51;;;;;;;15.97;6.40;;;15.30;99.90;;;;;;4976699;28;20453;-77
2023/05/25 09:43:19;;;;;;;23.87;7.50;;;15.30;99.90;;;;;;4977023;28;20467;-77
2023/05/25 09:46:06;;;;;;;21.77;7.50;;;15.30;99.90;;;;;;4976292;28;20986;-77
2023/05/25 09:48:36;;;;;;;21.37;8.13;;;15.40;99.90;;;;;;4977956;28;20799;-77
2023/05/25 09:51:07;;;;;;;17.97;7.20;;;15.40;99.90;;;;;;4976543;28;20892;-77
2023/05/25 09:53:35;;;;;;;16.83;6.60;;;15.40;99.90;;;;;;4976661;28;20824;-77
2023/05/25 09:56:03;;;;;;;19.00;6.70;;;15.40;99.90;;;;;;4975999;28;20516;-77
2023/05/25 09:58:31;;;;;;;19.80;6.57;;;15.50;99.90;;;;;;4976570;28;20565;-77
2023/05/25 10:01:00;;;;;;;19.40;6.63;;;15.60;99.90;;;;;;4976316;28;20519;-77
2023/05/25 10:03:28;;;;;;;14.60;5.93;;;15.60;99.90;;;;;;4976291;28;20969;-77
2023/05/25 10:05:58;;;;;;;20.20;6.23;;;15.60;99.90;;;;;;4975672;28;20831;-77
2023/05/25 10:08:28;;;;;;;17.57;7.37;;;15.70;99.90;;;;;;4975953;28;20449;-78
2023/05/25 10:10:56;;;;;;;18.33;6.47;;;15.80;99.90;;;;;;4975730;28;20453;-78
2023/05/25 10:13:27;;;;;;;20.27;6.10;;;15.90;99.90;;;;;;4975562;28;20453;-77
2023/05/25 10:15:56;;;;;;;16.47;7.93;;;16.00;99.90;;;;;;4976209;28;20461;-77
2023/05/25 10:18:26;;;;;;;15.43;6.13;;;16.10;99.90;;;;;;4976107;28;20412;-77
2023/05/25 10:21:02;;;;;;;17.00;6.00;;;16.20;99.90;;;;;;4976185;28;20554;-76
2023/05/25 10:23:40;;;;;;;18.50;6.87;;;16.30;99.90;;;;;;4974102;28;20437;-77
2023/05/25 10:26:10;;;;;;;14.87;6.43;;;16.40;99.90;;;;;;4975432;28;20448;-77
2023/05/25 10:28:41;;;;;;;15.87;6.13;;;16.50;99.90;;;;;;4975640;28;20490;-76
2023/05/25 10:31:10;;;;;;;18.33;6.93;;;16.60;99.90;;;;;;4975145;28;20456;-75
2023/05/25 10:33:39;;;;;;;19.00;7.07;;;16.60;99.90;;;;;;4975082;28;20417;-76
2023/05/25 10:36:12;;;;;;;16.77;6.60;;;16.50;99.90;;;;;;4975056;28;21090;-77
2023/05/25 10:38:43;;;;;;;20.47;7.30;;;16.50;99.90;;;;;;4976681;28;20421;-77
2023/05/25 10:41:14;;;;;;;19.57;6.93;;;16.50;99.90;;;;;;4976837;28;20393;-77
2023/05/25 10:43:43;;;;;;;22.60;7.40;;;16.40;99.90;;;;;;4976475;28;20453;-77
2023/05/25 10:46:13;;;;;;;22.57;7.10;;;16.40;99.90;;;;;;4974781;28;20519;-77
2023/05/25 10:48:47;;;;;;;20.70;8.20;;;16.50;99.90;;;;;;4974743;28;20417;-77
2023/05/25 10:51:19;;;;;;;17.40;6.23;;;16.60;99.90;;;;;;4976037;28;20830;-77
2023/05/25 10:53:58;;;;;;;18.43;6.70;;;16.60;99.90;;;;;;4976416;28;20396;-76
2023/05/25 10:56:26;;;;;;;17.33;6.03;;;16.50;99.90;;;;;;4974709;28;20888;-75
2023/05/25 10:58:55;;;;;;;15.73;6.37;;;16.50;99.90;;;;;;4976048;28;20802;-76
2023/05/25 11:01:25;;;;;;;20.83;7.33;;;16.50;99.90;;;;;;4975725;28;21006;-76
2023/05/25 11:03:56;;;;;;;18.73;7.27;;;16.50;99.90;;;;;;4976117;28;20805;-76
2023/05/25 11:06:58;;;;;;;15.70;7.00;;;16.50;99.90;;;;;;4974506;28;20505;-77
2023/05/25 11:09:30;;;;;;;13.67;6.90;;;16.50;99.90;;;;;;4975625;28;20539;-77
2023/05/25 11:12:02;;;;;;;15.07;5.90;;;16.50;99.90;;;;;;4974341;28;20459;-77
2023/05/25 11:14:32;;;;;;;18.03;7.63;;;16.60;99.90;;;;;;4974350;28;20490;-78
2023/05/25 11:17:09;;;;;;;20.97;7.43;;;16.60;99.90;;;;;;4975514;28;20523;-76
2023/05/25 11:19:43;;;;;;;16.07;6.57;;;16.60;99.90;;;;;;4975820;28;20480;-77
2023/05/25 11:22:15;;;;;;;23.53;8.13;;;16.60;99.90;;;;;;4974122;28;20438;-77
2023/05/25 11:24:45;;;;;;;14.90;6.13;;;16.60;99.90;;;;;;4975705;28;20396;-77
2023/05/25 11:27:15;;;;;;;14.10;6.03;;;16.60;99.90;;;;;;4975779;28;20903;-76
2023/05/25 11:29:44;;;;;;;19.17;7.60;;;16.70;99.90;;;;;;4974063;28;20454;-77
2023/05/25 11:32:13;;;;;;;20.87;8.10;;;16.80;99.90;;;;;;4974654;28;20551;-77
2023/05/25 11:34:45;;;;;;;21.60;7.73;;;16.80;99.90;;;;;;4975208;28;20755;-76
2023/05/25 11:37:19;;;;;;;19.10;7.70;;;16.80;99.90;;;;;;4973943;28;20447;-76
2023/05/25 11:39:50;;;;;;;21.93;7.87;;;16.90;99.90;;;;;;4975070;28;20920;-76
2023/05/25 11:42:21;;;;;;;19.83;7.90;;;16.90;99.90;;;;;;4975183;28;20422;-76
2023/05/25 11:44:49;;;;;;;21.40;7.30;;;16.90;99.90;;;;;;4973745;28;20859;-77
2023/05/25 11:47:21;;;;;;;19.27;7.57;;;16.90;99.90;;;;;;4975021;28;20885;-77
2023/05/25 11:49:50;;;;;;;20.70;8.60;;;16.90;99.90;;;;;;4975137;28;20409;-77
2023/05/25 11:52:20;;;;;;;21.50;8.00;;;16.90;99.90;;;;;;4973577;28;20495;-77
2023/05/25 11:54:51;;;;;;;14.23;6.93;;;16.90;99.90;;;;;;4973694;28;20787;-77
2023/05/25 11:57:23;;;;;;;18.93;7.20;;;16.80;99.90;;;;;;4975486;28;20404;-78
2023/05/25 11:59:52;;;;;;;15.90;7.20;;;16.80;99.90;;;;;;4978583;28;20403;-78
2023/05/25 12:02:22;;;;;;;19.30;7.77;;;16.80;99.90;;;;;;4976019;28;20890;-77
2023/05/25 12:04:54;;;;;;;19.20;8.40;;;16.80;99.90;;;;;;4975452;28;20423;-78
2023/05/25 12:07:24;;;;;;;19.13;7.27;;;16.90;99.90;;;;;;4974104;28;20544;-78
2023/05/25 12:10:04;;;;;;;19.73;6.97;;;16.90;99.90;;;;;;4973585;28;20914;-77
2023/05/25 12:12:40;;;;;;;15.77;8.20;;;16.90;99.90;;;;;;4973442;28;20490;-77
2023/05/25 12:15:10;;;;;;;22.63;6.97;;;16.90;99.90;;;;;;4975067;28;20431;-77
2023/05/25 12:17:41;;;;;;;19.77;7.50;;;16.80;99.90;;;;;;4974647;28;20496;-77
2023/05/25 12:20:11;;;;;;;18.40;7.30;;;16.90;99.90;;;;;;4973371;28;20425;-77
2023/05/25 12:22:40;;;;;;;18.27;6.73;;;16.90;99.90;;;;;;4975124;28;20799;-77
2023/05/25 12:25:12;;;;;;;14.70;6.07;;;17.00;99.90;;;;;;4972928;28;20826;-77
2023/05/25 12:27:41;;;;;;;14.57;5.77;;;17.00;99.90;;;;;;4974358;28;20455;-77
2023/05/25 12:30:11;;;;;;;18.63;7.43;;;17.10;99.90;;;;;;4973803;28;20441;-77
2023/05/25 12:32:59;;;;;;;17.53;6.40;;;17.10;99.90;;;;;;4973574;28;20457;-76
2023/05/25 12:35:43;;;;;;;14.33;6.10;;;17.10;99.90;;;;;;4973662;28;20528;-77
2023/05/25 12:38:13;;;;;;;19.63;7.17;;;17.20;99.90;;;;;;4973189;28;20902;-77
2023/05/25 12:40:42;;;;;;;18.97;7.30;;;17.20;99.90;;;;;;4974448;28;20840;-77
2023/05/25 12:43:13;;;;;;;27.83;9.63;;;17.20;99.90;;;;;;4973697;28;20420;-77
2023/05/25 12:45:41;;;;;;;20.80;7.70;;;17.20;99.90;;;;;;4974651;28;20444;-78
2023/05/25 12:48:11;;;;;;;21.73;7.87;;;17.30;99.90;;;;;;4974183;28;20485;-77
2023/05/25 12:50:56;;;;;;;21.10;7.30;;;17.30;99.90;;;;;;4973572;28;20432;-77